»·PEaware :: N3610E KMYF-KCRQ

N3610E :: KMYF-KCRQ

FLIGHT INFORMATION

Flight Status: Arrived
Operator: Privately registered:
United States
More flights under this callsign
Pilot: John C. (12173)
Aircraft: CESSNA 172 SKYHAWK
(C172)
More flights by this aircraft type
Origin: KMYF Montgomery
United States
Destination: KCRQ McClellan-Palomar
United States
More flights between these airports :: More routes between these airports
Route: +OCN
File this flight plan on PilotEdge
Remarks:
Altitude:
(Current/Filed)
4,000ft
Speed:
(Current/Filed)
100kts
Departed: 13-Mar-18 09:49 AM
Arrived: 13-Mar-18 10:32 AM
Distance/Time
Traveled:
20nm/0:43
Distance/Time
To Go:
Arrived

Flight Plot

Page will automatically refresh every two minutes.


Map Options




Map Legend


Flown Route
Filed Route
Departure Airport
Arrival Airport
Navaid (VOR, NDB)
Fix

Horizontal Profiles

Position Reports

Time Latitude Longitude Heading Altitude Ground
Speed
13-Mar-18 09:36 32.812900 -117.140782 357 416ft 0kts
13-Mar-18 09:37 32.812900 -117.140782 357 416ft 0kts
13-Mar-18 09:38 32.812900 -117.140782 357 416ft 0kts
13-Mar-18 09:39 32.812900 -117.140782 357 416ft 0kts
13-Mar-18 09:40 32.812900 -117.140782 357 416ft 0kts
13-Mar-18 09:41 32.812900 -117.140782 357 416ft 0kts
13-Mar-18 09:42 32.812900 -117.140782 357 416ft 0kts
13-Mar-18 09:43 32.812900 -117.140782 357 416ft 0kts
13-Mar-18 09:44 32.813800 -117.139311 113 417ft 17kts
13-Mar-18 09:45 32.811318 -117.132430 55 418ft 13kts
13-Mar-18 09:46 32.811913 -117.131531 27 421ft 0kts
13-Mar-18 09:47 32.812940 -117.131412 292 421ft 0kts
13-Mar-18 09:48 32.818255 -117.150310 281 1038ft 85kts
13-Mar-18 09:49 32.821243 -117.177640 282 2139ft 84kts
13-Mar-18 09:50 32.825352 -117.197861 321 2874ft 86kts
13-Mar-18 09:51 32.837501 -117.205903 326 3519ft 81kts
13-Mar-18 09:52 32.849391 -117.214761 332 3984ft 93kts
13-Mar-18 09:53 32.863313 -117.223147 334 4011ft 98kts
13-Mar-18 09:54 32.878117 -117.228862 332 4084ft 98kts
13-Mar-18 09:55 32.893082 -117.235702 0 4035ft 102kts
13-Mar-18 09:56 32.904711 -117.225281 43 4020ft 102kts
13-Mar-18 09:57 32.914843 -117.213219 40 3986ft 101kts
13-Mar-18 09:58 32.924923 -117.201124 41 3990ft 102kts
13-Mar-18 09:59 32.934819 -117.188405 41 4004ft 103kts
13-Mar-18 10:00 32.944836 -117.175884 41 4022ft 104kts
13-Mar-18 10:01 32.955068 -117.163128 41 4038ft 104kts
13-Mar-18 10:02 32.965576 -117.150297 45 4056ft 105kts
13-Mar-18 10:03 32.976310 -117.137312 40 4075ft 103kts
13-Mar-18 10:04 32.986703 -117.124095 40 4072ft 104kts
13-Mar-18 10:05 32.996877 -117.110796 42 4047ft 106kts
13-Mar-18 10:06 33.007985 -117.096880 41 4019ft 105kts
13-Mar-18 10:07 33.019819 -117.084066 41 3992ft 105kts
13-Mar-18 10:08 33.030910 -117.070481 41 3990ft 103kts
13-Mar-18 10:09 33.041485 -117.058144 38 3977ft 103kts
13-Mar-18 10:10 33.051932 -117.044967 41 3961ft 105kts
13-Mar-18 10:11 33.063064 -117.032057 40 3956ft 104kts
13-Mar-18 10:12 33.074259 -117.019300 29 3938ft 104kts
13-Mar-18 10:13 33.088355 -117.014289 16 3981ft 102kts
13-Mar-18 10:14 33.103409 -117.009516 9 4007ft 102kts
13-Mar-18 10:15 33.120102 -117.004433 10 3959ft 103kts
13-Mar-18 10:16 33.137505 -117.000373 7 3929ft 102kts
13-Mar-18 10:17 33.156622 -116.996510 348 3731ft 106kts
13-Mar-18 10:18 33.165227 -117.012923 282 3608ft 100kts
13-Mar-18 10:19 33.167849 -117.032533 265 3575ft 103kts
13-Mar-18 10:20 33.163620 -117.051030 257 3603ft 104kts
13-Mar-18 10:21 33.160549 -117.069453 262 3541ft 105kts
13-Mar-18 10:22 33.157650 -117.088706 266 3481ft 104kts
13-Mar-18 10:23 33.155448 -117.108737 267 3311ft 106kts
13-Mar-18 10:24 33.151964 -117.129809 260 3033ft 105kts
13-Mar-18 10:25 33.148727 -117.151237 263 2646ft 105kts
13-Mar-18 10:26 33.145593 -117.172356 261 2268ft 105kts
13-Mar-18 10:27 33.142348 -117.193681 261 1870ft 105kts
13-Mar-18 10:28 33.137724 -117.218490 260 1375ft 104kts
13-Mar-18 10:29 33.132253 -117.251833 261 739ft 102kts
13-Mar-18 10:30 33.129036 -117.275050 259 310ft 44kts
13-Mar-18 10:31 33.127650 -117.278303 113 311ft 0kts

Navigation Log

Ident Type
1. KMYF Airport
2. OCN Navaid
3. KCRQ Airport